Time;durP1;ratioP1;P1;durP2;ratioP2;P2;SDS_P1;SDS_P2;PMS_P1;PMS_P2;Temp;Humidity;BMP_temperature;BMP_pressure;BME280_temperature;BME280_humidity;BME280_pressure;Samples;Min_cycle;Max_cycle;Signal;HPM_P1;HPM_P2
2022/07/25 00:00:55;;;;;;;6.55;5.40;;;24.40;99.90;;;;;;5025326;28;25104;-68
2022/07/25 00:03:21;;;;;;;5.68;5.05;;;24.30;99.90;;;;;;5025685;28;25063;-69
2022/07/25 00:05:46;;;;;;;7.75;5.57;;;24.30;99.90;;;;;;5024654;28;25068;-68
2022/07/25 00:08:12;;;;;;;6.68;4.90;;;24.40;99.90;;;;;;5027349;28;25062;-68
2022/07/25 00:10:37;;;;;;;10.32;5.97;;;24.40;99.90;;;;;;5022833;28;25109;-69
2022/07/25 00:13:03;;;;;;;7.80;5.13;;;24.30;99.90;;;;;;5037591;28;25112;-68
2022/07/25 00:15:29;;;;;;;7.38;5.68;;;24.30;99.90;;;;;;5036565;28;25062;-69
2022/07/25 00:17:54;;;;;;;5.07;4.57;;;24.30;99.90;;;;;;5025201;28;25139;-68
2022/07/25 00:20:20;;;;;;;10.57;5.43;;;24.30;99.90;;;;;;5022295;28;25050;-68
2022/07/25 00:22:45;;;;;;;8.45;5.72;;;24.40;99.90;;;;;;5023972;28;25162;-68
2022/07/25 00:25:11;;;;;;;7.78;5.80;;;24.30;99.90;;;;;;5025220;28;25159;-68
2022/07/25 00:27:37;;;;;;;9.75;5.85;;;24.40;99.90;;;;;;5024546;28;25112;-69
2022/07/25 00:30:04;;;;;;;6.75;5.60;;;24.30;99.90;;;;;;5020596;28;25064;-69
2022/07/25 00:32:29;;;;;;;12.13;5.65;;;24.20;99.90;;;;;;5024834;28;25058;-69
2022/07/25 00:34:55;;;;;;;7.45;5.68;;;24.20;99.90;;;;;;5019588;28;25064;-68
2022/07/25 00:37:21;;;;;;;11.68;5.78;;;24.20;99.90;;;;;;5015850;28;25052;-68
2022/07/25 00:39:46;;;;;;;7.35;5.47;;;24.20;99.90;;;;;;5025696;28;25129;-68
2022/07/25 00:42:12;;;;;;;8.05;5.97;;;24.00;99.90;;;;;;5026183;28;25055;-68
2022/07/25 00:44:37;;;;;;;8.02;6.28;;;23.80;99.90;;;;;;5025997;28;25066;-68
2022/07/25 00:47:03;;;;;;;9.05;6.00;;;23.70;99.90;;;;;;5028113;28;25067;-68
2022/07/25 00:49:29;;;;;;;10.68;6.15;;;23.70;99.90;;;;;;5030152;28;25084;-68
2022/07/25 00:51:55;;;;;;;9.15;5.55;;;23.60;99.90;;;;;;5026271;28;25068;-68
2022/07/25 00:54:21;;;;;;;7.70;6.15;;;23.50;99.90;;;;;;5020048;28;25076;-67
2022/07/25 00:56:48;;;;;;;7.53;6.15;;;23.50;99.90;;;;;;5025593;28;25116;-68
2022/07/25 00:59:15;;;;;;;8.85;6.13;;;23.40;99.90;;;;;;5025937;28;25065;-69
2022/07/25 01:01:41;;;;;;;7.20;6.13;;;23.30;99.90;;;;;;5025177;28;25055;-68
2022/07/25 01:04:07;;;;;;;7.30;6.32;;;23.30;99.90;;;;;;5026529;28;25068;-68
2022/07/25 01:06:33;;;;;;;8.02;6.70;;;23.30;99.90;;;;;;5024180;28;25083;-69
2022/07/25 01:09:00;;;;;;;7.25;5.75;;;23.20;99.90;;;;;;5014805;28;25114;-68
2022/07/25 01:11:26;;;;;;;7.38;6.47;;;23.20;99.90;;;;;;5030765;28;25074;-69
2022/07/25 01:13:52;;;;;;;7.97;6.47;;;23.20;99.90;;;;;;5028954;28;25135;-68
2022/07/25 01:16:17;;;;;;;6.85;5.88;;;23.10;99.90;;;;;;5031163;28;25069;-67
2022/07/25 01:18:43;;;;;;;9.18;6.30;;;23.10;99.90;;;;;;5026543;28;25102;-68
2022/07/25 01:21:09;;;;;;;8.70;6.28;;;23.10;99.90;;;;;;5025119;28;25140;-68
2022/07/25 01:23:35;;;;;;;8.70;6.38;;;23.10;99.90;;;;;;5019912;28;25060;-68
2022/07/25 01:26:01;;;;;;;7.18;6.28;;;23.00;99.90;;;;;;5030351;28;25117;-68
2022/07/25 01:28:27;;;;;;;9.88;6.40;;;23.00;99.90;;;;;;5023681;28;25097;-69
2022/07/25 01:30:53;;;;;;;11.70;6.80;;;23.00;99.90;;;;;;5024842;28;25059;-69
2022/07/25 01:33:20;;;;;;;8.20;6.28;;;23.00;99.90;;;;;;5024901;28;25061;-68
2022/07/25 01:35:46;;;;;;;9.85;6.95;;;22.90;99.90;;;;;;5026845;28;25063;-67
2022/07/25 01:38:12;;;;;;;9.43;6.38;;;22.80;99.90;;;;;;5020354;28;25059;-68
2022/07/25 01:40:38;;;;;;;9.25;6.53;;;22.90;99.90;;;;;;5029816;28;25147;-68
2022/07/25 01:43:04;;;;;;;6.75;6.10;;;23.10;99.90;;;;;;5017596;28;25091;-68
2022/07/25 01:45:29;;;;;;;9.00;6.88;;;23.10;99.90;;;;;;5025813;28;25103;-68
2022/07/25 01:47:55;;;;;;;11.82;6.93;;;22.90;99.90;;;;;;5026177;28;25046;-67
2022/07/25 01:50:21;;;;;;;8.35;7.32;;;22.90;99.90;;;;;;5022314;28;25130;-68
2022/07/25 01:52:46;;;;;;;8.93;6.90;;;22.90;99.90;;;;;;5025822;28;25067;-68
2022/07/25 01:55:12;;;;;;;7.55;6.72;;;22.90;99.90;;;;;;5023453;28;25074;-67
2022/07/25 01:57:39;;;;;;;8.98;6.90;;;22.80;99.90;;;;;;5026183;28;25060;-68
2022/07/25 02:00:07;;;;;;;11.73;6.40;;;22.70;99.90;;;;;;5027129;28;25059;-68
2022/07/25 02:02:33;;;;;;;9.02;6.97;;;22.60;99.90;;;;;;5023937;28;25067;-68
2022/07/25 02:04:58;;;;;;;9.45;6.63;;;22.60;99.90;;;;;;5022835;28;25114;-68
2022/07/25 02:07:24;;;;;;;9.88;6.97;;;22.70;99.90;;;;;;5023043;28;25152;-67
2022/07/25 02:09:50;;;;;;;7.97;6.68;;;22.80;99.90;;;;;;5021964;28;25140;-68
2022/07/25 02:12:15;;;;;;;7.85;7.05;;;22.70;99.90;;;;;;5023392;28;25094;-67
2022/07/25 02:14:41;;;;;;;7.55;6.78;;;22.60;99.90;;;;;;5023582;28;25153;-68
2022/07/25 02:17:06;;;;;;;11.10;7.20;;;22.60;99.90;;;;;;5024258;28;25153;-68
2022/07/25 02:19:33;;;;;;;8.27;7.38;;;22.60;99.90;;;;;;5025451;28;25083;-67
2022/07/25 02:21:58;;;;;;;7.80;6.85;;;22.60;99.90;;;;;;5022211;28;25158;-68
2022/07/25 02:24:24;;;;;;;9.00;6.80;;;22.50;99.90;;;;;;5021907;28;25059;-67
2022/07/25 02:26:50;;;;;;;9.75;7.03;;;22.40;99.90;;;;;;5024537;28;25076;-68
2022/07/25 02:29:15;;;;;;;10.25;7.55;;;22.50;99.90;;;;;;5023866;28;25110;-67
2022/07/25 02:31:41;;;;;;;7.80;6.85;;;22.50;99.90;;;;;;5018413;28;25083;-67
2022/07/25 02:34:06;;;;;;;11.18;7.07;;;22.40;99.90;;;;;;5020705;28;25064;-68
2022/07/25 02:36:32;;;;;;;8.38;7.13;;;22.40;99.90;;;;;;5025179;28;25113;-67
2022/07/25 02:38:57;;;;;;;9.05;6.88;;;22.40;99.90;;;;;;5023595;28;25135;-68
2022/07/25 02:41:23;;;;;;;8.35;7.03;;;22.50;99.90;;;;;;5029504;28;25062;-68
2022/07/25 02:43:48;;;;;;;10.15;7.40;;;22.40;99.90;;;;;;5023142;28;25066;-68
2022/07/25 02:46:14;;;;;;;9.55;8.07;;;22.40;99.90;;;;;;5024107;28;25044;-68
2022/07/25 02:48:40;;;;;;;7.70;6.78;;;22.30;99.90;;;;;;5025048;28;25052;-68
2022/07/25 02:51:05;;;;;;;10.07;7.47;;;22.30;99.90;;;;;;5023968;28;25065;-69
2022/07/25 02:53:31;;;;;;;9.27;7.15;;;22.20;99.90;;;;;;5025841;28;25062;-67
2022/07/25 02:55:56;;;;;;;9.65;6.18;;;22.20;99.90;;;;;;5028325;28;25394;-68
2022/07/25 02:58:22;;;;;;;8.07;6.18;;;22.20;99.90;;;;;;5027447;28;25094;-67
2022/07/25 03:00:47;;;;;;;9.98;6.63;;;22.30;99.90;;;;;;5029904;28;25134;-68
2022/07/25 03:03:13;;;;;;;9.98;6.85;;;22.30;99.90;;;;;;5026467;28;25117;-68
2022/07/25 03:05:39;;;;;;;8.88;6.38;;;22.20;99.90;;;;;;5026916;28;25110;-68
2022/07/25 03:08:04;;;;;;;7.65;6.28;;;22.10;99.90;;;;;;5036356;28;25072;-68
2022/07/25 03:10:30;;;;;;;9.38;7.03;;;22.20;99.90;;;;;;5024660;28;25069;-68
2022/07/25 03:12:56;;;;;;;9.85;6.97;;;22.30;99.90;;;;;;5021028;28;25178;-68
2022/07/25 03:15:21;;;;;;;10.68;6.82;;;22.30;99.90;;;;;;5024418;28;25063;-68
2022/07/25 03:17:47;;;;;;;7.38;6.57;;;22.30;99.90;;;;;;5029833;28;25069;-68
2022/07/25 03:20:12;;;;;;;9.23;6.78;;;22.30;99.90;;;;;;5026875;28;25087;-68
2022/07/25 03:22:38;;;;;;;9.15;7.03;;;22.30;99.90;;;;;;5031116;28;25071;-67
2022/07/25 03:25:04;;;;;;;11.93;7.90;;;22.30;99.90;;;;;;5028092;28;25100;-67
2022/07/25 03:27:29;;;;;;;11.32;6.78;;;22.30;99.90;;;;;;5028890;28;25086;-68
2022/07/25 03:29:55;;;;;;;11.95;6.63;;;22.40;99.90;;;;;;5032261;28;25064;-67
2022/07/25 03:32:22;;;;;;;10.63;7.40;;;22.40;99.90;;;;;;5027595;28;25165;-68
2022/07/25 03:34:47;;;;;;;9.75;7.22;;;22.50;99.90;;;;;;5026509;28;25482;-68
2022/07/25 03:37:13;;;;;;;9.23;7.53;;;22.40;99.90;;;;;;5026943;28;25073;-67
2022/07/25 03:39:38;;;;;;;13.82;7.90;;;22.40;99.90;;;;;;5024820;28;25062;-68
2022/07/25 03:42:04;;;;;;;12.15;7.10;;;22.40;99.90;;;;;;5030531;28;25082;-67
2022/07/25 03:44:30;;;;;;;8.60;7.53;;;22.30;99.90;;;;;;5026590;28;25142;-68
2022/07/25 03:46:55;;;;;;;9.48;7.85;;;22.30;99.90;;;;;;5027659;28;25082;-67
2022/07/25 03:49:21;;;;;;;10.57;7.55;;;22.30;99.90;;;;;;5026457;28;25070;-67
2022/07/25 03:51:46;;;;;;;11.40;7.60;;;22.40;99.90;;;;;;5029998;28;25090;-68
2022/07/25 03:54:12;;;;;;;9.18;7.32;;;22.40;99.90;;;;;;5027426;28;25066;-68
2022/07/25 03:56:43;;;;;;;10.73;8.27;;;22.40;99.90;;;;;;5026364;28;25137;-68
2022/07/25 03:59:10;;;;;;;9.25;7.78;;;22.30;99.90;;;;;;5027694;28;25065;-67
2022/07/25 04:01:36;;;;;;;8.63;7.43;;;22.30;99.90;;;;;;5024869;28;25141;-68
2022/07/25 04:04:03;;;;;;;8.05;7.18;;;22.30;99.90;;;;;;5020402;28;25073;-68
2022/07/25 04:06:29;;;;;;;9.70;7.53;;;22.40;99.90;;;;;;5027401;28;25141;-67
2022/07/25 04:08:55;;;;;;;10.93;7.40;;;22.40;99.90;;;;;;5024839;28;25049;-67
2022/07/25 04:11:21;;;;;;;9.82;7.18;;;22.40;99.90;;;;;;5026708;28;25078;-68
2022/07/25 04:13:47;;;;;;;10.40;7.00;;;22.30;99.90;;;;;;5023577;28;25060;-68
2022/07/25 04:16:13;;;;;;;13.80;6.90;;;22.30;99.90;;;;;;5033782;28;25169;-67
2022/07/25 04:18:40;;;;;;;7.82;7.03;;;22.30;99.90;;;;;;5019893;28;25119;-67
2022/07/25 04:21:06;;;;;;;11.23;6.70;;;22.30;99.90;;;;;;5013714;28;25156;-67
2022/07/25 04:23:31;;;;;;;9.02;6.88;;;22.20;99.90;;;;;;5018144;28;25066;-68
2022/07/25 04:25:57;;;;;;;10.57;6.25;;;22.20;99.90;;;;;;5020513;28;25051;-68
2022/07/25 04:28:24;;;;;;;8.77;5.85;;;22.20;99.90;;;;;;5033036;28;25075;-67
2022/07/25 04:30:49;;;;;;;7.95;5.75;;;22.30;99.90;;;;;;5029574;28;25071;-67
2022/07/25 04:33:15;;;;;;;7.65;5.78;;;22.30;99.90;;;;;;5019928;28;25076;-66
2022/07/25 04:35:41;;;;;;;9.07;6.43;;;22.30;99.90;;;;;;5025352;28;25098;-68
2022/07/25 04:38:07;;;;;;;8.27;6.10;;;22.30;99.90;;;;;;5029919;28;25069;-67
2022/07/25 04:40:33;;;;;;;10.52;6.20;;;22.30;99.90;;;;;;5035525;28;25121;-68
2022/07/25 04:42:59;;;;;;;12.45;6.20;;;22.30;99.90;;;;;;5038783;28;25122;-68
2022/07/25 04:45:25;;;;;;;6.80;6.13;;;22.30;99.90;;;;;;5032149;28;25104;-68
2022/07/25 04:47:51;;;;;;;10.30;6.72;;;22.30;99.90;;;;;;5024325;28;25057;-69
2022/07/25 04:50:17;;;;;;;8.30;6.13;;;22.20;99.90;;;;;;5023607;28;25065;-68
2022/07/25 04:52:43;;;;;;;20.55;7.63;;;22.10;99.90;;;;;;5026025;28;25138;-67
2022/07/25 04:55:09;;;;;;;8.35;5.80;;;22.10;99.90;;;;;;5034449;28;25085;-68
2022/07/25 04:57:35;;;;;;;9.10;5.68;;;22.20;99.90;;;;;;5028700;28;25149;-69
2022/07/25 05:00:02;;;;;;;10.90;5.50;;;22.00;99.90;;;;;;5031689;28;25064;-67
2022/07/25 05:02:28;;;;;;;8.40;5.05;;;22.00;99.90;;;;;;5033462;28;25110;-67
2022/07/25 05:04:54;;;;;;;8.82;4.90;;;22.00;99.90;;;;;;5028192;28;25160;-68
2022/07/25 05:07:19;;;;;;;12.90;4.90;;;22.00;99.90;;;;;;5025381;28;25097;-66
2022/07/25 05:09:45;;;;;;;9.73;4.38;;;22.00;99.90;;;;;;5024573;28;25060;-68
2022/07/25 05:12:10;;;;;;;6.78;3.72;;;22.10;99.90;;;;;;5014573;28;25072;-68
2022/07/25 05:14:37;;;;;;;12.50;4.20;;;22.10;99.90;;;;;;5021911;28;25079;-68
2022/07/25 05:17:03;;;;;;;8.75;3.85;;;22.10;99.90;;;;;;5027057;28;25091;-67
2022/07/25 05:19:29;;;;;;;4.07;3.53;;;22.10;99.90;;;;;;5030205;28;25095;-69
2022/07/25 05:21:54;;;;;;;4.63;3.20;;;22.10;99.90;;;;;;5030430;28;25087;-68
2022/07/25 05:24:21;;;;;;;3.38;3.05;;;22.20;99.90;;;;;;5032440;28;25135;-66
2022/07/25 05:26:47;;;;;;;3.55;3.25;;;22.20;99.90;;;;;;5025688;28;25096;-67
2022/07/25 05:29:13;;;;;;;10.02;2.97;;;22.20;99.90;;;;;;5015330;28;25048;-68
2022/07/25 05:31:39;;;;;;;3.72;2.40;;;22.20;99.90;;;;;;5017333;28;25170;-67
2022/07/25 05:34:04;;;;;;;5.93;2.35;;;22.10;99.90;;;;;;5015087;28;25103;-68
2022/07/25 05:36:30;;;;;;;2.80;2.50;;;22.10;99.90;;;;;;5025177;28;25057;-68
2022/07/25 05:38:55;;;;;;;6.30;2.47;;;22.10;99.90;;;;;;5025614;28;25093;-68
2022/07/25 05:41:21;;;;;;;4.47;2.70;;;22.20;99.90;;;;;;5019142;28;25056;-66
2022/07/25 05:43:47;;;;;;;10.77;2.70;;;22.20;99.90;;;;;;5020343;28;25076;-67
2022/07/25 05:46:14;;;;;;;4.63;2.40;;;22.10;99.90;;;;;;5032978;28;25076;-68
2022/07/25 05:48:40;;;;;;;3.97;2.22;;;22.10;99.90;;;;;;5026110;28;25166;-67
2022/07/25 05:51:05;;;;;;;3.97;2.30;;;22.20;99.90;;;;;;5034872;28;25406;-67
2022/07/25 05:53:31;;;;;;;4.32;2.38;;;22.20;99.90;;;;;;5028599;28;25066;-69
2022/07/25 05:55:57;;;;;;;4.80;2.65;;;22.20;99.90;;;;;;5026888;28;25105;-67
2022/07/25 05:58:22;;;;;;;5.43;2.38;;;22.10;99.90;;;;;;5020610;28;25141;-67
2022/07/25 06:00:49;;;;;;;3.85;2.17;;;22.10;99.90;;;;;;5020223;28;25075;-67
2022/07/25 06:03:16;;;;;;;6.90;2.00;;;22.20;99.90;;;;;;5029411;28;25047;-67
2022/07/25 06:05:42;;;;;;;8.20;2.70;;;22.10;99.90;;;;;;5027379;28;25075;-67
2022/07/25 06:08:08;;;;;;;5.45;2.38;;;22.10;99.90;;;;;;5020039;28;25076;-68
2022/07/25 06:10:33;;;;;;;9.73;2.25;;;22.10;99.90;;;;;;5030319;28;25101;-69
2022/07/25 06:12:59;;;;;;;7.15;2.08;;;22.10;99.90;;;;;;5025856;28;25036;-68
2022/07/25 06:15:24;;;;;;;7.25;1.92;;;22.20;99.90;;;;;;5024375;28;25153;-67
2022/07/25 06:17:50;;;;;;;5.55;1.80;;;22.20;99.90;;;;;;5013945;28;25135;-67
2022/07/25 06:20:15;;;;;;;6.55;2.20;;;22.20;99.90;;;;;;5021905;28;25066;-67
2022/07/25 06:22:41;;;;;;;8.15;3.55;;;22.20;99.90;;;;;;5025994;28;25088;-66
2022/07/25 06:25:07;;;;;;;5.45;1.80;;;22.20;99.90;;;;;;5026000;28;25067;-66
2022/07/25 06:27:34;;;;;;;11.07;2.13;;;22.10;99.90;;;;;;5023956;28;25128;-66
2022/07/25 06:30:01;;;;;;;11.63;3.05;;;22.20;99.90;;;;;;5031267;28;25061;-67
2022/07/25 06:32:27;;;;;;;6.95;2.10;;;22.20;99.90;;;;;;5028755;28;25132;-69
2022/07/25 06:34:52;;;;;;;7.18;2.28;;;22.10;99.90;;;;;;5023910;28;25100;-67
2022/07/25 06:37:18;;;;;;;8.48;2.40;;;22.20;99.90;;;;;;5025015;28;25100;-67
2022/07/25 06:39:43;;;;;;;6.38;2.15;;;22.20;99.90;;;;;;5031759;28;25139;-67
2022/07/25 06:42:09;;;;;;;11.05;1.92;;;22.20;99.90;;;;;;5025472;28;25136;-66
2022/07/25 06:44:34;;;;;;;10.57;2.55;;;22.40;99.90;;;;;;5029999;28;25148;-67
2022/07/25 06:47:01;;;;;;;8.80;2.45;;;22.40;99.90;;;;;;5028560;28;25158;-66
2022/07/25 06:49:26;;;;;;;7.18;2.33;;;22.40;99.90;;;;;;5020870;28;25068;-67
2022/07/25 06:51:52;;;;;;;10.43;2.38;;;22.40;99.90;;;;;;5027729;28;25074;-67
2022/07/25 06:54:18;;;;;;;8.15;2.38;;;22.40;99.90;;;;;;5025384;28;25125;-68
2022/07/25 06:56:43;;;;;;;11.20;2.65;;;22.30;99.90;;;;;;5025644;28;25126;-67
2022/07/25 06:59:09;;;;;;;9.55;2.70;;;22.40;99.90;;;;;;5031291;28;25140;-67
2022/07/25 07:01:35;;;;;;;12.20;2.63;;;22.30;99.90;;;;;;5031454;28;25051;-67
2022/07/25 07:04:01;;;;;;;10.15;2.40;;;22.40;99.90;;;;;;5027083;28;25071;-67
2022/07/25 07:06:27;;;;;;;6.40;2.10;;;22.30;99.90;;;;;;5025788;28;25148;-70
2022/07/25 07:08:53;;;;;;;7.45;2.08;;;22.50;99.90;;;;;;5025149;28;25127;-66
2022/07/25 07:11:18;;;;;;;13.30;3.03;;;22.50;99.90;;;;;;5013636;28;25085;-66
2022/07/25 07:13:44;;;;;;;8.35;1.92;;;22.40;99.90;;;;;;5022878;28;25053;-66
2022/07/25 07:16:10;;;;;;;7.25;2.20;;;22.50;99.90;;;;;;5027452;28;25136;-67
2022/07/25 07:18:36;;;;;;;8.35;2.60;;;22.40;99.90;;;;;;5017131;28;25140;-67
2022/07/25 07:21:03;;;;;;;14.70;2.20;;;22.40;99.90;;;;;;5026175;28;25098;-67
2022/07/25 07:23:28;;;;;;;7.50;1.98;;;22.40;99.90;;;;;;5019631;28;25128;-66
2022/07/25 07:25:54;;;;;;;11.13;2.28;;;22.40;99.90;;;;;;5020179;28;25079;-66
2022/07/25 07:28:20;;;;;;;11.52;3.00;;;22.40;99.90;;;;;;5026582;28;25071;-66
2022/07/25 07:30:45;;;;;;;13.30;2.65;;;22.50;99.90;;;;;;5028080;28;25090;-69
2022/07/25 07:33:11;;;;;;;4.72;1.77;;;22.60;99.90;;;;;;5017257;28;25084;-68
2022/07/25 07:35:37;;;;;;;8.82;2.30;;;22.70;99.90;;;;;;5022753;28;25076;-68
2022/07/25 07:38:02;;;;;;;6.93;2.00;;;22.90;99.90;;;;;;5011666;28;25442;-68
2022/07/25 07:40:28;;;;;;;11.60;2.63;;;22.90;99.90;;;;;;5014720;28;25055;-67
2022/07/25 07:42:55;;;;;;;5.32;2.03;;;22.90;99.90;;;;;;5015166;28;25100;-66
2022/07/25 07:45:23;;;;;;;16.83;2.70;;;22.90;99.90;;;;;;5012101;28;25086;-67
2022/07/25 07:47:51;;;;;;;10.43;2.58;;;22.80;99.90;;;;;;5014812;28;25083;-68
2022/07/25 07:50:21;;;;;;;11.85;3.17;;;22.90;99.90;;;;;;5012741;28;25095;-66
2022/07/25 07:52:47;;;;;;;7.07;2.35;;;22.80;99.90;;;;;;5013636;28;25046;-67
2022/07/25 07:57:58;;;;;;;13.48;3.30;;;23.00;99.90;;;;;;5009811;28;25068;-67
2022/07/25 08:00:26;;;;;;;13.93;3.22;;;22.90;99.90;;;;;;5012530;28;25063;-67
2022/07/25 08:02:53;;;;;;;8.82;3.65;;;22.80;99.90;;;;;;5013372;28;25075;-68
2022/07/25 08:05:31;;;;;;;13.30;2.28;;;22.90;99.90;;;;;;5011460;28;25051;-68
2022/07/25 08:07:57;;;;;;;7.50;2.60;;;23.00;99.90;;;;;;5007587;28;25059;-65
2022/07/25 08:10:26;;;;;;;9.73;2.80;;;23.20;99.90;;;;;;5011235;28;25124;-67
2022/07/25 08:12:52;;;;;;;8.27;2.22;;;23.40;99.90;;;;;;5011882;28;25075;-68
2022/07/25 08:15:19;;;;;;;6.43;2.38;;;23.40;99.90;;;;;;5018788;28;25064;-68
2022/07/25 08:17:46;;;;;;;5.20;2.78;;;23.60;99.90;;;;;;5016887;28;25078;-68
2022/07/25 08:20:12;;;;;;;14.43;2.70;;;23.50;99.90;;;;;;5020577;28;25045;-68
2022/07/25 08:22:40;;;;;;;10.98;4.00;;;23.40;99.90;;;;;;5008997;28;25079;-66
2022/07/25 08:25:07;;;;;;;8.05;2.33;;;23.20;99.90;;;;;;5016840;28;25095;-68
2022/07/25 08:27:33;;;;;;;9.23;3.15;;;23.30;99.90;;;;;;5012841;28;25127;-68
2022/07/25 08:30:00;;;;;;;8.68;3.40;;;23.30;99.90;;;;;;5012618;28;25069;-67
2022/07/25 08:32:27;;;;;;;12.75;3.00;;;23.30;99.90;;;;;;5011902;28;25096;-67
2022/07/25 08:34:53;;;;;;;11.27;2.80;;;23.30;99.90;;;;;;5014480;28;25076;-68
2022/07/25 08:37:19;;;;;;;8.82;2.70;;;23.20;99.90;;;;;;5011094;28;25068;-67
2022/07/25 08:39:44;;;;;;;13.70;3.03;;;23.10;99.90;;;;;;5012878;28;25090;-68
2022/07/25 08:42:10;;;;;;;7.38;2.65;;;22.90;99.90;;;;;;5017673;28;25129;-68
2022/07/25 08:44:39;;;;;;;7.07;2.88;;;22.80;99.90;;;;;;5008293;28;25075;-68
2022/07/25 08:47:06;;;;;;;11.27;3.53;;;22.90;99.90;;;;;;5015514;28;25099;-67
2022/07/25 08:49:32;;;;;;;10.70;3.22;;;23.00;99.90;;;;;;5011902;28;25145;-67
2022/07/25 08:51:58;;;;;;;10.30;2.55;;;23.30;99.90;;;;;;5012195;28;25024;-66
2022/07/25 08:54:23;;;;;;;10.02;2.40;;;23.30;99.90;;;;;;5009985;28;25140;-65
2022/07/25 08:56:49;;;;;;;11.30;2.58;;;23.50;99.90;;;;;;5012438;28;25079;-68
2022/07/25 08:59:15;;;;;;;9.52;2.40;;;23.50;99.90;;;;;;5012055;28;25152;-67
2022/07/25 09:01:40;;;;;;;7.82;3.00;;;23.70;99.90;;;;;;5016124;28;25074;-67
2022/07/25 09:04:08;;;;;;;11.43;2.53;;;24.20;99.90;;;;;;5016283;28;25068;-67
2022/07/25 09:06:34;;;;;;;13.73;2.75;;;24.40;99.90;;;;;;5019961;28;25130;-67
2022/07/25 09:09:03;;;;;;;11.40;2.58;;;24.30;99.90;;;;;;5019758;28;25132;-67
2022/07/25 09:11:34;;;;;;;11.63;2.78;;;24.30;99.90;;;;;;5027129;28;25071;-68
2022/07/25 09:14:06;;;;;;;7.78;2.17;;;24.60;99.90;;;;;;5019102;28;25061;-69
2022/07/25 09:16:34;;;;;;;8.32;2.28;;;25.00;99.90;;;;;;5024126;28;24847;-68
2022/07/25 09:19:06;;;;;;;10.52;2.47;;;25.30;99.90;;;;;;5021829;28;25171;-67
2022/07/25 09:21:32;;;;;;;8.98;2.63;;;25.20;99.90;;;;;;5014363;28;25093;-66
2022/07/25 09:24:17;;;;;;;8.85;2.35;;;25.40;99.90;;;;;;5013976;28;25073;-69
2022/07/25 09:26:43;;;;;;;10.90;2.90;;;25.20;99.90;;;;;;5009338;28;25095;-67
2022/07/25 09:29:15;;;;;;;8.27;2.45;;;25.10;99.90;;;;;;5019150;28;25048;-66
2022/07/25 09:31:41;;;;;;;;;;;24.80;99.90;;;;;;5011644;28;25101;-69
2022/07/25 09:34:08;;;;;;;8.68;2.17;;;24.40;99.90;;;;;;5017542;28;24059;-68
2022/07/25 09:36:34;;;;;;;8.02;2.38;;;24.20;99.90;;;;;;5009487;28;25120;-67
2022/07/25 09:39:01;;;;;;;10.40;2.50;;;24.10;99.90;;;;;;5013532;28;25049;-67
2022/07/25 09:41:37;;;;;;;11.77;2.50;;;24.20;99.90;;;;;;5009565;28;25143;-66
2022/07/25 09:44:13;;;;;;;8.43;2.03;;;24.20;99.90;;;;;;5010600;28;25154;-67
2022/07/25 09:46:39;;;;;;;7.57;2.08;;;24.40;99.90;;;;;;5009500;28;25161;-64
2022/07/25 09:49:04;;;;;;;10.82;2.72;;;24.50;99.90;;;;;;5017068;28;25087;-68
2022/07/25 09:51:31;;;;;;;6.85;2.65;;;24.40;99.90;;;;;;5010534;28;25074;-68
2022/07/25 09:53:56;;;;;;;8.05;2.50;;;24.20;99.90;;;;;;5010566;28;25058;-68
2022/07/25 09:56:22;;;;;;;12.23;2.30;;;24.40;99.90;;;;;;5016836;28;25087;-65
2022/07/25 09:58:48;;;;;;;10.98;2.08;;;24.60;99.90;;;;;;5015889;28;25069;-67
2022/07/25 10:01:26;;;;;;;10.20;2.55;;;24.60;99.90;;;;;;5018635;28;25082;-68
2022/07/25 10:04:11;;;;;;;5.60;2.17;;;24.20;99.90;;;;;;5023073;28;25058;-66
2022/07/25 10:06:49;;;;;;;5.47;2.65;;;24.20;99.90;;;;;;5012295;28;25070;-68
2022/07/25 10:09:15;;;;;;;10.15;3.10;;;23.90;99.90;;;;;;5015222;28;25054;-67
2022/07/25 10:12:11;;;;;;;16.05;3.45;;;23.70;99.90;;;;;;5014747;28;25086;-65
2022/07/25 10:14:38;;;;;;;10.73;2.70;;;23.60;99.90;;;;;;5020968;28;25166;-67
2022/07/25 10:17:04;;;;;;;10.13;2.75;;;23.60;99.90;;;;;;5018699;28;25073;-69
2022/07/25 10:19:41;;;;;;;9.18;3.30;;;23.70;99.90;;;;;;5022721;28;25058;-69
2022/07/25 10:22:07;;;;;;;14.52;3.63;;;23.90;99.90;;;;;;5018436;28;25095;-66
2022/07/25 10:24:34;;;;;;;9.98;2.95;;;24.30;99.90;;;;;;5021026;28;25088;-67
2022/07/25 10:27:08;;;;;;;11.32;3.45;;;24.50;99.90;;;;;;5015885;28;25058;-68
2022/07/25 10:29:34;;;;;;;16.45;3.38;;;24.10;99.90;;;;;;5016736;28;25081;-66
2022/07/25 10:32:31;;;;;;;11.70;3.08;;;23.90;99.90;;;;;;5019915;28;24908;-65
2022/07/25 10:34:56;;;;;;;12.95;3.90;;;23.90;99.90;;;;;;5020927;28;25060;-67
2022/07/25 10:37:27;;;;;;;8.38;3.38;;;23.80;99.90;;;;;;5017523;28;25064;-69
2022/07/25 10:39:55;;;;;;;14.85;4.10;;;23.70;99.90;;;;;;5020491;28;25129;-65
2022/07/25 10:42:21;;;;;;;14.13;3.40;;;23.50;99.90;;;;;;5022762;28;25052;-67
2022/07/25 10:44:53;;;;;;;13.38;4.22;;;23.50;99.90;;;;;;5019382;28;25083;-65
2022/07/25 10:47:22;;;;;;;12.65;3.75;;;23.60;99.90;;;;;;5017500;28;25122;-68
2022/07/25 10:49:57;;;;;;;11.02;3.63;;;23.70;99.90;;;;;;5026268;28;25150;-66
2022/07/25 10:52:27;;;;;;;10.13;3.88;;;23.70;99.90;;;;;;5022320;28;25137;-67
2022/07/25 10:54:55;;;;;;;17.25;4.63;;;24.10;99.90;;;;;;5020193;28;25086;-66
2022/07/25 10:57:21;;;;;;;12.48;3.45;;;24.20;99.90;;;;;;5021583;28;25088;-68
2022/07/25 10:59:47;;;;;;;8.80;3.15;;;24.00;99.90;;;;;;5018718;28;25062;-65
2022/07/25 11:02:16;;;;;;;9.10;3.10;;;24.00;99.90;;;;;;5012370;28;25055;-69
2022/07/25 11:04:57;;;;;;;11.32;3.15;;;23.90;99.90;;;;;;5017354;28;25075;-64
2022/07/25 11:07:23;;;;;;;11.00;3.13;;;23.70;99.90;;;;;;5025687;28;25097;-67
2022/07/25 11:09:59;;;;;;;8.68;3.35;;;23.50;99.90;;;;;;5019787;28;25167;-67
2022/07/25 11:12:26;;;;;;;15.45;3.78;;;23.40;99.90;;;;;;5029108;28;25062;-66
2022/07/25 11:15:05;;;;;;;10.05;3.97;;;23.20;99.90;;;;;;5013309;28;25080;-67
2022/07/25 11:17:31;;;;;;;11.70;3.00;;;23.10;99.90;;;;;;5015132;28;25065;-67
2022/07/25 11:20:03;;;;;;;14.45;3.40;;;23.00;99.90;;;;;;5023642;28;25060;-66
2022/07/25 11:22:29;;;;;;;;;;;23.00;99.90;;;;;;5024764;28;25071;-70
2022/07/25 11:24:56;;;;;;;12.93;3.30;;;23.10;99.90;;;;;;5024202;28;24068;-66
2022/07/25 11:27:26;;;;;;;14.02;2.67;;;23.30;99.90;;;;;;5017161;28;25054;-68
2022/07/25 11:29:52;;;;;;;8.95;2.53;;;23.60;99.90;;;;;;5020447;28;25084;-65
2022/07/25 11:32:18;;;;;;;15.75;3.60;;;23.60;99.90;;;;;;5014682;28;25068;-67
2022/07/25 11:34:51;;;;;;;11.98;3.20;;;23.60;99.90;;;;;;5023939;28;25067;-68
2022/07/25 11:37:18;;;;;;;11.27;3.08;;;23.90;99.90;;;;;;5018762;28;25067;-65
2022/07/25 11:39:46;;;;;;;8.57;2.67;;;23.80;99.90;;;;;;5018606;28;25114;-66
2022/07/25 11:42:16;;;;;;;9.25;2.88;;;23.40;99.90;;;;;;5025694;28;25055;-66
2022/07/25 11:44:48;;;;;;;12.75;2.97;;;23.20;99.90;;;;;;5017112;28;25126;-66
2022/07/25 11:47:22;;;;;;;8.82;2.53;;;23.40;99.90;;;;;;5016742;28;25091;-66
2022/07/25 11:49:50;;;;;;;12.07;2.83;;;23.60;99.90;;;;;;5020050;28;25162;-68
2022/07/25 11:52:22;;;;;;;11.23;3.10;;;23.60;99.90;;;;;;5022653;28;25147;-66
2022/07/25 11:54:56;;;;;;;;;;;23.50;99.90;;;;;;5018264;28;25100;-65
2022/07/25 11:57:27;;;;;;;13.05;3.45;;;23.50;99.90;;;;;;5016105;28;24068;-65
2022/07/25 11:59:54;;;;;;;11.27;2.75;;;23.40;99.90;;;;;;5017444;28;25076;-67
2022/07/25 12:02:22;;;;;;;17.67;3.63;;;23.50;99.90;;;;;;5017469;28;25049;-68
2022/07/25 12:04:59;;;;;;;11.60;3.60;;;23.60;99.90;;;;;;5019675;28;25092;-67
2022/07/25 12:07:38;;;;;;;9.50;3.58;;;23.80;99.90;;;;;;5021116;28;25116;-68
2022/07/25 12:10:08;;;;;;;9.68;2.75;;;23.70;99.90;;;;;;5015828;28;25080;-65
2022/07/25 12:12:51;;;;;;;9.77;2.55;;;23.50;99.90;;;;;;5018493;28;25155;-65
2022/07/25 12:15:26;;;;;;;9.35;3.00;;;23.60;99.90;;;;;;5018685;28;25050;-67
2022/07/25 12:17:53;;;;;;;12.50;2.92;;;23.60;99.90;;;;;;5015978;28;25093;-68
2022/07/25 12:20:31;;;;;;;14.65;2.55;;;23.60;99.90;;;;;;5019379;28;25078;-67
2022/07/25 12:23:00;;;;;;;8.07;3.05;;;23.50;99.90;;;;;;5018081;28;25079;-66
2022/07/25 12:25:27;;;;;;;14.40;2.85;;;23.60;99.90;;;;;;5020652;28;25057;-66
2022/07/25 12:27:53;;;;;;;9.88;3.47;;;23.70;99.90;;;;;;5022886;28;25091;-69
2022/07/25 12:30:18;;;;;;;9.27;2.65;;;23.70;99.90;;;;;;5016495;28;25126;-68
2022/07/25 12:32:44;;;;;;;12.40;2.70;;;23.70;99.90;;;;;;5017589;28;25142;-69
2022/07/25 12:35:11;;;;;;;9.07;2.95;;;23.50;99.90;;;;;;5016624;28;25125;-66
2022/07/25 12:37:38;;;;;;;11.82;3.67;;;23.70;99.90;;;;;;5023467;28;25076;-66
2022/07/25 12:40:05;;;;;;;15.52;3.58;;;23.70;99.90;;;;;;5021143;28;25057;-69
2022/07/25 12:42:31;;;;;;;18.92;3.08;;;23.80;99.90;;;;;;5024325;28;25142;-68
2022/07/25 12:44:56;;;;;;;13.45;3.40;;;23.80;99.90;;;;;;5013070;28;25108;-67